• Join FlightAware (Why Join?)
  • Login
  • US Flag 
07:17PM EST


 

Airport Tracker/Info


-or-


 

Live Flight TrackerFlight Track Log ✈ SWA1182 ✈ 08-Jul-2013 ✈ KMDW - KEWR

Flight Track Log - Related Links

Times and Time Zones

All times are in EDT time to prevent confusion due to time zone crossing. See the SWA1182 flight status page for this flight to view local times or setup timezone preferences in your user account.

Time Position Orientation Groundspeed Altitude Reporting Facility
EDT Latitude Longitude Course Direction KTS MPH feet Rate Location/Type
07:31PM 41.7322 -87.7650 90° East 214 246 2,900  Level Chicago Center
07:32PM 41.6667 -87.6917 140° Southeast 296 341 6,500 3,463 Climbing Chicago Center
07:33PM 41.6725 -87.5761 86° East 310 357 10,000 3,366 Climbing Chicago Center
07:34PM 41.6939 -87.4608 76° East 319 367 13,400 3,194 Climbing Chicago Center
07:35PM 41.7147 -87.3442 77° East 323 372 16,600 2,565 Climbing Chicago Center
07:36PM 41.7500 -86.8566 90° East  Level FlightAware Approximate
07:36PM 41.7356 -87.2219 77° East 335 386 18,700  Level Chicago Center
07:37PM 41.7592 -87.0808 77° East 389 448 20,300 2,032 Climbing Chicago Center
07:38PM 41.7642 -86.8958 88° East 414 476 22,900 2,371 Climbing Chicago Center
07:39PM 41.7842 -86.7417 80° East 420 483 25,200 2,081 Climbing Chicago Center
07:40PM 41.8039 -86.5706 81° East 434 499 27,200 1,776 Climbing Chicago Center
07:41PM 41.8222 -86.4053 81° East 446 513 28,900 1,536 Climbing Chicago Center
07:42PM 41.8411 -86.2358 81° East 457 526 30,400 1,452 Climbing Chicago Center
07:43PM 41.8606 -86.0644 81° East 464 534 31,900 1,452 Climbing Chicago Center
07:44PM 41.8806 -85.8917 81° East 466 536 33,400 1,694 Climbing Chicago Center
07:45PM 41.9000 -85.7178 81° East 469 540 35,400 1,597 Climbing Chicago Center
07:46PM 41.9189 -85.5464 82° East 462 532 36,700 1,161 Climbing Chicago Center
07:47PM 41.9417 -85.3364 82° East 469 540 37,800 1,016 Climbing Chicago Center
07:48PM 41.9531 -85.1589 85° East 474 545 38,800 581 Climbing Chicago Center
07:49PM 41.9511 -84.9803 91° East 475 547 39,000 97 Climbing Chicago Center
07:50PM 41.9503 -84.8006 90° East 481 554 39,000  Level Chicago Center
07:51PM 41.9489 -84.6233 91° East 476 548 39,000  Level Chicago Center
07:52PM 41.9467 -84.4464 91° East 474 545 39,000  Level Chicago Center
07:53PM 41.9486 -84.3358 89° East 478 550 39,000  Level Cleveland Center
07:54PM 41.9400 -84.1481 93° East 473 544 39,000  Level Cleveland Center
07:55PM 41.9392 -83.9694 90° East 468 539 39,000  Level Cleveland Center
07:56PM 41.9358 -83.7961 91° East 468 539 39,000  Level Cleveland Center
07:57PM 41.9322 -83.6228 92° East 463 533 39,000  Level Cleveland Center
07:58PM 41.9347 -83.4444 89° East 463 533 39,000  Level Cleveland Center
07:59PM 41.9325 -83.2739 91° East 454 522 39,000  Level Cleveland Center
08:00PM 41.9297 -83.1175 91° East 459 528 39,000  Level Cleveland Center
08:01PM 41.9272 -82.9442 91° East 459 528 39,000  Level Cleveland Center
08:02PM 41.9264 -82.7739 90° East 464 534 39,000  Level Cleveland Center
08:03PM 41.9256 -82.6008 90° East 459 528 39,000  Level Cleveland Center
08:04PM 41.9244 -82.4250 90° East 459 528 39,000  Level Cleveland Center
08:05PM 41.9208 -82.2519 92° East 459 528 39,000  Level Cleveland Center
08:06PM 41.9211 -82.0678 90° East 459 528 39,000  Level Cleveland Center
08:07PM 41.9192 -81.8947 91° East 459 528 39,000  Level Cleveland Center
08:08PM 41.9083 -81.7242 95° East 459 528 39,000  Level Cleveland Center
08:09PM 41.8933 -81.5539 97° East 459 528 39,000  Level Cleveland Center
08:10PM 41.8781 -81.3836 97° East 465 535 39,000  Level Cleveland Center
08:11PM 41.8622 -81.2133 97° East 465 535 39,000  Level Cleveland Center
08:12PM 41.8464 -81.0625 98° East 465 535 39,000  Level Cleveland Center
08:13PM 41.8303 -80.8897 97° East 460 529 39,000  Level Cleveland Center
08:14PM 41.8139 -80.7142 97° East 472 543 39,000  Level Cleveland Center
08:15PM 41.7975 -80.5414 97° East 472 543 39,000  Level Cleveland Center
08:16PM 41.7806 -80.3689 97° East 467 537 39,000  Level Cleveland Center
08:17PM 41.7611 -80.1794 98° East 467 537 39,000  Level Cleveland Center
08:18PM 41.7417 -80.0042 98° East 467 537 39,000  Level Cleveland Center
08:19PM 41.7261 -79.8375 97° East 467 537 39,000  Level Cleveland Center
08:20PM 41.7061 -79.6653 99° East 467 537 39,000  Level Cleveland Center
08:21PM 41.6903 -79.5097 98° East 467 537 39,000  Level Cleveland Center
08:22PM 41.6717 -79.3350 98° East 467 537 39,000  Level Cleveland Center
08:23PM 41.6531 -79.1631 98° East 467 537 39,000  Level Cleveland Center
08:24PM 41.6342 -78.9911 98° East 467 537 39,000  Level Cleveland Center
08:25PM 41.6150 -78.8167 98° East 467 537 39,000 -250 Level Cleveland Center
08:26PM 41.5933 -78.6453 100° East 467 537 38,500 -700 Descending Cleveland Center
08:27PM 41.5758 -78.4681 97° East 467 537 37,600 -919 Descending Cleveland Center
08:28PM 41.5503 -78.2861 101° East 476 548 36,600 -952 Descending New York Center
08:29PM 41.5297 -78.1147 99° East 482 555 35,600 -958 Descending New York Center
08:30PM 41.5072 -77.9378 100° East 482 555 34,700 -1,017 Descending New York Center
08:31PM 41.4822 -77.7633 101° East 477 549 33,600 -1,033 Descending New York Center
08:32PM 41.4583 -77.6003 101° East 463 533 32,600 -1,041 Descending New York Center
08:33PM 41.4333 -77.4178 100° East 452 520 31,500 -1,068 Descending New York Center
08:34PM 41.4136 -77.2831 101° East 439 505 30,500 -1,017 Descending New York Center
08:35PM 41.3906 -77.1342 102° East 425 489 29,500 -1,000 Descending New York Center
08:36PM 41.3689 -76.9883 101° East 412 474 28,500 -992 Descending New York Center
08:37PM 41.3472 -76.8453 101° East 401 461 27,500 -992 Descending New York Center
08:38PM 41.3169 -76.7044 106° East 395 455 26,500 -1,131 Descending New York Center
08:39PM 41.2781 -76.5631 110° East 401 461 25,200 -1,500 Descending New York Center
08:40PM 41.2392 -76.4189 110° East 407 468 23,500 -1,881 Descending New York Center
08:41PM 41.2000 -76.2778 110° East 407 468 21,500 -1,785 Descending New York Center
08:42PM 41.1647 -76.1397 109° East 401 461 19,900 -1,388 Descending New York Center
08:43PM 41.1275 -75.9936 109° East 391 450 18,700 -1,200 Descending New York Center
08:44PM 41.0914 -75.8642 110° East 379 436 17,500 -1,576 Descending New York Center
08:45PM 41.0550 -75.7378 111° Southeast 374 430 15,600 -1,932 Descending New York Center
08:46PM 41.0264 -75.6283 109° East 360 414 13,700 -1,574 Descending New York Center
08:47PM 40.9900 -75.4992 110° East 354 407 12,400 -1,171 Descending New York Center
08:48PM 40.9569 -75.3842 111° Southeast 340 391 11,300 -1,068 Descending New York Center
08:49PM 40.9258 -75.2722 110° East 335 386 10,300 -872 Descending New York Center
08:50PM 40.9022 -75.1800 109° East 307 353 9,600 -836 Descending New York Center
08:51PM 40.8725 -75.0822 112° Southeast 287 330 8,600 -1,041 Descending New York Center
08:52PM 40.8408 -74.9758 111° Southeast 282 325 7,500 -807 Descending New York Center
08:53PM 40.8153 -74.8783 109° East 276 318 7,000 -744 Descending New York Center
08:54PM 40.7872 -74.7836 111° Southeast 283 326 6,000 -541 Descending New York Center
08:55PM 40.7800 -74.6844 95° East 273 314 5,900 -504 Descending New York Center
08:56PM 40.8247 -74.5964 56° Northeast 260 299 5,000 -474 Descending New York Center
08:57PM 40.8667 -74.5167 55° Northeast 280 322 5,000  Level New York TRACON
08:58PM 40.9000 -74.4333 62° Northeast 279 321 5,000  Level New York TRACON
08:59PM 40.9167 -74.3333 78° East 277 319 5,000 -381 Level New York TRACON
09:00PM 40.9333 -74.2167 79° East 272 313 4,200 -650 Descending New York TRACON
09:01PM 40.9167 -74.1500 108° East 246 283 3,700 -632 Descending New York TRACON
09:02PM 40.8833 -74.0833 123° Southeast 236 272 3,000 -550 Descending New York TRACON
09:03PM 40.8167 -74.0833 180° South 191 220 2,600 -600 Descending New York TRACON
09:04PM 40.7833 -74.1000 201° Southwest 149 171 1,800 -750 Descending New York TRACON
09:05PM 40.7500 -74.1333 217° Southwest 149 171 1,100 -700 Descending New York TRACON
09:06PM 40.7167 -74.1500 201° Southwest 135 155 400 -700 Descending New York TRACON
09:08PM 40.6925 -74.1687 174° South  Level Estimated
09:15PM 40.6925 -74.1687 174° South  Level Estimated
09:16PM 40.6925 -74.1687 174° South  Level Estimated